Biggleswade, United Kingdom
Current Conditions -  °F | °C
As of 8:20 AM on Monday 26 Jan 2015 (Local Time) from EGTC Reporting Station
Drizzle Drizzle  
Wind Chill: 44°   Ceiling: 1400
Heat Index: 48°   Visibility: 5mi
Dew Point: 46°   Wind: 9mph
Humidity: 93%   Direction: 260°W
Pressure: 30.12"   Gusts: NA
Location:  52.09°N, 0.26°W
Report Text: EGTC 260820Z 26008KT 8000 -DZ FEW008 BKN014 09/08 Q1020
Loading
Personal Weather Stations






























Interactive Weather Map New forecast layout! Learn more

10-Day Weather Forecast

Advertisements
Track Severe Weather on mobile